createdAt,value
2018-09-28T01:39:59.914Z,95.00
2018-09-28T01:42:27.422Z,99.90
2018-09-28T01:44:55.193Z,99.90
2018-09-28T01:47:23.004Z,99.90
2018-09-28T01:49:50.718Z,99.90
2018-09-28T01:52:18.461Z,99.90
2018-09-28T01:54:46.114Z,99.90
2018-09-28T01:57:13.979Z,99.90
2018-09-28T01:59:41.668Z,99.90
2018-09-28T02:02:09.390Z,99.90
2018-09-28T02:04:37.038Z,99.90
2018-09-28T02:07:04.871Z,99.90
2018-09-28T02:09:32.585Z,99.90
2018-09-28T02:12:00.310Z,99.90
2018-09-28T02:14:28.026Z,99.90
2018-09-28T02:16:55.754Z,99.90
2018-09-28T02:19:24.113Z,99.90
2018-09-28T02:21:51.827Z,99.90
2018-09-28T02:24:19.516Z,99.90
2018-09-28T02:26:47.311Z,99.90
2018-09-28T02:29:15.090Z,99.90
2018-09-28T02:31:42.871Z,99.90
2018-09-28T02:34:10.903Z,99.90
2018-09-28T02:36:38.707Z,99.90
2018-09-28T02:39:06.821Z,99.90
2018-09-28T02:41:35.050Z,99.90
2018-09-28T02:44:02.835Z,99.90
2018-09-28T02:46:30.897Z,99.90
2018-09-28T02:48:58.657Z,99.90
2018-09-28T02:51:26.788Z,99.90
2018-09-28T02:53:54.599Z,99.90
2018-09-28T02:56:22.325Z,99.90
2018-09-28T02:58:50.016Z,99.90
2018-09-28T03:01:17.826Z,99.90
2018-09-28T03:03:45.576Z,99.90
2018-09-28T03:06:13.388Z,99.90
2018-09-28T03:08:41.197Z,99.90
2018-09-28T03:11:09.034Z,99.90
2018-09-28T03:13:36.846Z,99.90
2018-09-28T03:16:04.763Z,99.90
2018-09-28T03:18:32.541Z,99.90
2018-09-28T03:21:00.292Z,99.90
2018-09-28T03:23:28.078Z,99.90
2018-09-28T03:25:56.053Z,99.90
2018-09-28T03:28:23.938Z,99.90
2018-09-28T03:30:51.658Z,99.90
2018-09-28T03:33:19.406Z,99.90
2018-09-28T03:35:47.324Z,99.90
2018-09-28T03:38:15.081Z,99.90
2018-09-28T03:40:42.843Z,99.90
2018-09-28T03:43:10.612Z,99.90
2018-09-28T03:45:38.461Z,99.90
2018-09-28T03:48:07.207Z,99.90
2018-09-28T03:50:36.293Z,99.90
2018-09-28T03:53:04.116Z,99.90
2018-09-28T03:55:31.853Z,99.90
2018-09-28T03:57:59.661Z,99.90
2018-09-28T04:00:27.444Z,99.90
2018-09-28T04:02:56.086Z,99.90
2018-09-28T04:05:24.496Z,99.90
2018-09-28T04:07:52.243Z,99.90
2018-09-28T04:10:20.310Z,99.90
2018-09-28T04:12:48.082Z,99.90
2018-09-28T04:15:18.104Z,99.90
2018-09-28T04:17:45.895Z,99.90
2018-09-28T04:20:16.207Z,99.90
2018-09-28T04:22:45.266Z,99.90
2018-09-28T04:25:13.104Z,99.90
2018-09-28T04:27:41.013Z,99.90
2018-09-28T04:30:08.880Z,99.90
2018-09-28T04:32:36.756Z,99.90
2018-09-28T04:35:04.482Z,99.90
2018-09-28T04:37:33.756Z,99.90
2018-09-28T04:40:01.737Z,99.90
2018-09-28T04:42:29.618Z,99.90
2018-09-28T04:44:57.761Z,99.90
2018-09-28T04:47:26.253Z,99.90
2018-09-28T04:49:56.181Z,99.90
2018-09-28T05:28:41.014Z,99.90
2018-09-28T05:31:08.668Z,99.90
2018-09-28T05:33:44.268Z,99.90
2018-09-28T05:36:11.708Z,99.90
2018-09-28T05:38:39.162Z,99.90
2018-09-28T05:41:06.729Z,99.90
2018-09-28T05:43:34.380Z,99.90
2018-09-28T05:46:01.995Z,99.90
2018-09-28T05:48:30.689Z,99.90
2018-09-28T05:50:58.350Z,99.90
2018-09-28T05:53:26.013Z,99.90
2018-09-28T05:55:53.584Z,99.90
2018-09-28T05:58:26.489Z,99.90
2018-09-28T06:00:59.611Z,99.90
2018-09-28T06:03:27.277Z,99.90
2018-09-28T06:06:01.462Z,99.90
2018-09-28T06:08:29.161Z,99.90
2018-09-28T06:10:56.758Z,99.90
2018-09-28T06:13:24.418Z,99.90
2018-09-28T06:15:52.348Z,99.90
2018-09-28T06:18:20.001Z,99.90
2018-09-28T06:20:48.126Z,99.90
2018-09-28T06:23:15.805Z,99.90
2018-09-28T06:25:52.516Z,99.90
2018-09-28T06:28:20.124Z,99.90
2018-09-28T06:30:47.756Z,99.90
2018-09-28T06:33:15.461Z,99.90
2018-09-28T06:35:43.090Z,99.90
2018-09-28T06:38:10.758Z,99.90
2018-09-28T06:40:39.563Z,99.90
2018-09-28T06:43:07.225Z,99.90
2018-09-28T06:45:34.826Z,99.90
2018-09-28T06:48:02.564Z,99.90
2018-09-28T06:50:32.065Z,99.90
2018-09-28T06:52:59.970Z,99.90
2018-09-28T06:55:27.760Z,99.90
2018-09-28T06:57:55.458Z,99.90
2018-09-28T07:00:25.107Z,99.90
2018-09-28T07:02:52.797Z,99.90
2018-09-28T07:05:20.545Z,99.90
2018-09-28T07:07:48.232Z,99.90
2018-09-28T07:10:16.065Z,99.90
2018-09-28T07:12:43.785Z,99.90
2018-09-28T07:15:11.491Z,99.50
2018-09-28T07:17:39.288Z,99.40
2018-09-28T07:20:08.053Z,99.20
2018-09-28T07:22:36.122Z,99.10
2018-09-28T07:28:02.939Z,98.80
2018-09-28T07:30:42.805Z,98.80
2018-09-28T07:53:58.347Z,97.00
2018-09-28T07:56:33.597Z,96.20
2018-09-28T07:59:01.405Z,96.40
2018-09-28T08:01:29.139Z,95.40
2018-09-28T08:03:57.031Z,95.10
2018-09-28T08:06:24.715Z,94.70
2018-09-28T08:08:52.317Z,94.60
2018-09-28T08:11:20.107Z,94.30
2018-09-28T08:13:47.900Z,94.80
2018-09-28T08:16:15.502Z,93.90
2018-09-28T08:18:43.208Z,93.30
2018-09-28T08:21:12.704Z,93.10
2018-09-28T08:23:40.497Z,92.50
2018-09-28T08:26:08.217Z,92.30
2018-09-28T08:28:35.903Z,92.20
2018-09-28T08:31:03.674Z,92.00
2018-09-28T08:33:31.446Z,91.70
2018-09-28T08:35:59.204Z,91.00
2018-09-28T08:38:27.015Z,91.00
2018-09-28T08:40:54.768Z,91.00
2018-09-28T08:43:22.491Z,90.30
2018-09-28T08:45:50.108Z,90.00
2018-09-28T08:48:17.851Z,89.20
2018-09-28T08:50:45.558Z,87.70
2018-09-28T08:53:18.860Z,87.30
2018-09-28T08:55:46.728Z,87.40
2018-09-28T08:58:14.502Z,86.40
2018-09-28T09:00:42.357Z,83.90
2018-09-28T09:03:10.274Z,83.30
2018-09-28T09:05:38.118Z,81.50
2018-09-28T09:08:06.238Z,81.40
2018-09-28T09:10:34.782Z,79.70
2018-09-28T09:13:02.628Z,78.90
2018-09-28T09:15:30.340Z,77.40
2018-09-28T09:17:58.136Z,75.60
2018-09-28T09:26:16.549Z,80.20
2018-09-28T09:28:54.316Z,81.10
2018-09-28T09:31:30.246Z,81.70
2018-09-28T09:34:37.698Z,79.90
2018-09-28T09:37:32.363Z,80.00
2018-09-28T09:40:04.774Z,78.70
2018-09-28T09:42:35.963Z,77.10
2018-09-28T09:45:26.593Z,78.10
2018-09-28T09:47:57.096Z,79.60
2018-09-28T09:50:36.017Z,81.30
2018-09-28T09:53:23.786Z,81.30
2018-09-28T09:55:56.261Z,83.30
2018-09-28T09:58:30.284Z,83.70
2018-09-28T10:01:16.457Z,84.40
2018-09-28T10:03:53.876Z,85.60
2018-09-28T10:06:25.739Z,86.20
2018-09-28T10:08:53.464Z,87.60
2018-09-28T10:11:21.366Z,88.50
2018-09-28T10:13:49.114Z,89.00
2018-09-28T10:16:16.895Z,88.20
2018-09-28T10:18:44.539Z,88.70
2018-09-28T10:21:12.155Z,90.00
2018-09-28T10:23:39.787Z,90.60
2018-09-28T10:26:07.473Z,91.20
2018-09-28T10:28:38.353Z,92.10
2018-09-28T10:31:06.003Z,92.50
2018-09-28T10:33:33.747Z,92.80
2018-09-28T10:36:01.396Z,93.30
2018-09-28T10:38:29.046Z,93.30
2018-09-28T10:40:57.053Z,94.10
2018-09-28T10:43:31.274Z,94.30
2018-09-28T10:45:59.070Z,94.90
2018-09-28T10:48:26.730Z,95.30
2018-09-28T10:50:55.259Z,95.20
2018-09-28T10:53:23.055Z,95.70
2018-09-28T10:55:50.993Z,95.70
2018-09-28T10:58:18.688Z,95.80
2018-09-28T11:00:46.488Z,96.10
2018-09-28T11:03:14.249Z,96.50
2018-09-28T11:05:42.002Z,96.80
2018-09-28T11:08:09.619Z,97.10
2018-09-28T11:10:37.479Z,97.10
2018-09-28T11:13:05.102Z,97.20
2018-09-28T11:15:32.910Z,97.40
2018-09-28T11:18:00.587Z,97.60
2018-09-28T11:20:28.231Z,97.70
2018-09-28T11:22:55.856Z,97.80
2018-09-28T11:25:23.515Z,97.90
2018-09-28T11:27:51.262Z,97.70
2018-09-28T11:30:18.881Z,97.30
2018-09-28T11:32:46.554Z,97.60
2018-09-28T11:35:14.191Z,97.70
2018-09-28T11:37:41.933Z,97.70
2018-09-28T11:40:14.646Z,97.50
2018-09-28T11:42:42.282Z,97.60
2018-09-28T11:45:10.118Z,97.80
2018-09-28T11:47:43.258Z,98.00
2018-09-28T11:50:11.245Z,97.90
2018-09-28T11:52:38.897Z,98.20
2018-09-28T11:55:06.648Z,98.50
2018-09-28T11:57:35.471Z,98.70
2018-09-28T12:00:03.134Z,98.90
2018-09-28T12:02:31.509Z,99.10
2018-09-28T12:04:59.634Z,99.20
2018-09-28T12:07:27.292Z,99.60
2018-09-28T12:09:56.045Z,99.90
2018-09-28T12:12:23.750Z,99.90
2018-09-28T12:14:51.530Z,99.90
2018-09-28T12:17:19.185Z,99.90
2018-09-28T12:20:03.554Z,99.90
2018-09-28T12:22:43.733Z,99.90
2018-09-28T12:25:12.945Z,99.90
2018-09-28T12:27:40.726Z,99.90
2018-09-28T12:30:08.738Z,99.90
2018-09-28T12:32:36.466Z,99.90
2018-09-28T12:35:06.265Z,99.90
2018-09-28T12:37:34.384Z,99.90
2018-09-28T12:40:02.690Z,99.90
2018-09-28T12:42:30.521Z,99.90
2018-09-28T12:44:58.976Z,99.90
2018-09-28T12:47:26.922Z,99.90
2018-09-28T12:49:55.845Z,99.90
2018-09-28T12:52:23.554Z,99.90
2018-09-28T12:57:44.659Z,99.90
2018-09-28T13:03:00.509Z,99.90
2018-09-28T13:05:29.382Z,99.90
2018-09-28T13:07:57.130Z,99.90
2018-09-28T13:10:25.018Z,99.90
2018-09-28T13:12:53.714Z,99.90
2018-09-28T13:15:21.450Z,99.90
2018-09-28T13:17:49.136Z,99.90
2018-09-28T13:20:19.990Z,99.90
2018-09-28T13:22:53.751Z,99.90
2018-09-28T13:25:25.134Z,99.90
2018-09-28T13:27:52.807Z,99.90
2018-09-28T13:30:34.235Z,99.90
2018-09-28T13:33:20.961Z,99.80
2018-09-28T13:35:56.855Z,99.10
2018-09-28T13:38:45.014Z,99.20
2018-09-28T13:41:22.721Z,99.30
2018-09-28T13:43:50.479Z,99.40
2018-09-28T13:46:34.029Z,99.00
2018-09-28T13:49:02.752Z,99.00
2018-09-28T13:51:30.611Z,99.40
2018-09-28T13:53:58.507Z,99.90
2018-09-28T13:56:30.937Z,99.70
2018-09-28T13:59:12.828Z,99.70
2018-09-28T14:01:40.603Z,99.10
2018-09-28T14:04:08.420Z,98.30
2018-09-28T14:06:47.911Z,97.80
2018-09-28T14:09:18.501Z,97.40
2018-09-28T14:11:46.244Z,97.50
2018-09-28T14:14:14.236Z,97.80
2018-09-28T14:16:42.356Z,97.70
2018-09-28T14:19:10.158Z,97.70
2018-09-28T14:21:37.936Z,97.80
2018-09-28T14:24:07.701Z,97.70
2018-09-28T14:26:35.982Z,97.30
2018-09-28T14:29:04.883Z,97.40
2018-09-28T14:32:02.110Z,97.10
2018-09-28T14:34:32.235Z,97.20
2018-09-28T14:37:00.000Z,97.20
2018-09-28T14:39:29.034Z,97.30
2018-09-28T14:42:04.650Z,97.60
2018-09-28T14:44:32.561Z,98.10
2018-09-28T14:47:00.502Z,97.70
2018-09-28T14:49:31.354Z,97.70
2018-09-28T14:51:59.223Z,97.50
2018-09-28T14:54:27.655Z,97.30
2018-09-28T14:56:56.042Z,97.40
2018-09-28T14:59:23.921Z,97.40
2018-09-28T15:01:51.716Z,97.50
2018-09-28T15:04:19.512Z,97.40
2018-09-28T15:06:50.158Z,97.40
2018-09-28T15:09:21.802Z,97.60
2018-09-28T15:11:49.703Z,97.80
2018-09-28T15:14:19.422Z,97.60
2018-09-28T15:16:48.054Z,97.60
2018-09-28T15:19:17.767Z,97.70
2018-09-28T15:22:05.358Z,97.90
2018-09-28T15:24:33.003Z,98.00
2018-09-28T15:27:00.715Z,98.00
2018-09-28T15:29:33.848Z,98.10
2018-09-28T15:35:11.523Z,98.40
2018-09-28T15:37:48.114Z,98.50
2018-09-28T15:40:15.839Z,98.20
2018-09-28T15:42:43.486Z,98.40
2018-09-28T15:45:15.160Z,98.50
2018-09-28T15:47:47.477Z,98.50
2018-09-28T15:50:15.086Z,98.40
2018-09-28T15:52:42.694Z,98.70
2018-09-28T15:55:10.372Z,98.80
2018-09-28T16:11:51.217Z,98.70
2018-09-28T16:17:08.887Z,96.10
2018-09-28T16:19:38.150Z,95.70
2018-09-28T16:22:11.684Z,94.70
2018-09-28T16:24:40.803Z,94.80
2018-09-28T16:27:08.749Z,94.60
2018-09-28T16:29:37.289Z,94.40
2018-09-28T16:32:05.333Z,94.30
2018-09-28T16:34:36.825Z,94.10
2018-09-28T19:56:43.147Z,98.90
2018-09-28T19:59:13.184Z,99.70
2018-09-28T20:19:22.838Z,99.60
2018-09-28T20:24:32.583Z,99.90
2018-09-28T20:27:01.283Z,99.90
2018-09-28T20:29:29.861Z,99.90
2018-09-28T20:31:57.907Z,99.90
2018-09-28T20:34:26.020Z,99.90
2018-09-28T20:37:01.433Z,99.90
2018-09-28T20:39:39.094Z,99.90
2018-09-28T20:42:08.437Z,99.90
2018-09-28T20:44:39.147Z,99.90
2018-09-28T20:47:07.605Z,99.90
2018-09-28T20:49:36.657Z,99.90
2018-09-28T20:52:05.657Z,99.90
2018-09-28T20:54:35.077Z,99.90
2018-09-28T20:57:04.859Z,99.90
2018-09-28T20:59:33.660Z,99.90
2018-09-28T21:02:02.413Z,99.90
2018-09-28T21:04:30.353Z,99.90
2018-09-28T21:06:58.229Z,99.90
2018-09-28T21:09:28.498Z,99.90
2018-09-28T21:11:56.556Z,99.90
2018-09-28T21:14:25.355Z,99.90
2018-09-28T21:16:54.305Z,99.90
2018-09-28T21:19:22.575Z,99.90
2018-09-28T21:21:51.585Z,99.90
2018-09-28T21:24:19.546Z,99.90
2018-09-28T21:26:47.264Z,99.90
2018-09-28T21:29:15.208Z,99.90
2018-09-28T21:31:42.796Z,99.90
2018-09-28T21:34:10.717Z,99.90
2018-09-28T21:36:38.538Z,99.90
2018-09-28T21:39:07.065Z,99.90
2018-09-28T21:41:34.825Z,99.90
2018-09-28T21:44:02.556Z,99.90
2018-09-28T21:46:31.809Z,99.90
2018-09-28T21:49:01.441Z,99.90
2018-09-28T21:51:29.351Z,99.90
2018-09-28T21:53:57.032Z,99.90
2018-09-28T21:56:24.738Z,99.90
2018-09-28T21:58:52.723Z,99.90
2018-09-28T22:01:20.517Z,99.90
2018-09-28T22:03:49.532Z,99.90
2018-09-28T22:06:17.307Z,99.90
2018-09-28T22:08:45.500Z,99.90
2018-09-28T22:11:26.417Z,99.90
2018-09-28T22:13:54.166Z,99.90
2018-09-28T22:16:21.902Z,99.90
2018-09-28T22:18:49.663Z,99.90
2018-09-28T22:21:17.332Z,99.90
2018-09-28T22:23:45.105Z,99.90
2018-09-28T22:26:12.796Z,99.90
2018-09-28T22:28:40.530Z,99.90
2018-09-28T22:31:08.305Z,99.90
2018-09-28T22:33:36.119Z,99.90
2018-09-28T22:36:03.943Z,99.90
2018-09-28T22:38:31.674Z,99.90
2018-09-28T22:40:59.660Z,99.90
2018-09-28T22:43:27.401Z,99.90
2018-09-28T22:45:55.128Z,99.90
2018-09-28T22:48:22.825Z,99.90
2018-09-28T22:50:51.962Z,99.90
2018-09-28T22:53:20.559Z,99.90
2018-09-28T22:55:50.172Z,99.90
2018-09-28T22:58:20.450Z,99.90
2018-09-28T23:00:48.573Z,99.90
2018-09-28T23:03:18.069Z,99.90
2018-09-28T23:05:47.814Z,99.90
2018-09-28T23:08:17.542Z,99.90
2018-09-28T23:10:46.777Z,99.90
2018-09-28T23:13:17.321Z,99.90
2018-09-28T23:15:46.430Z,99.90
2018-09-28T23:18:16.873Z,99.90
2018-09-28T23:20:45.784Z,99.90
2018-09-28T23:23:14.955Z,99.90
2018-09-28T23:25:44.347Z,99.90
2018-09-28T23:28:13.527Z,99.90
2018-09-28T23:30:42.020Z,99.90
2018-09-28T23:33:11.017Z,99.90
2018-09-28T23:35:39.487Z,99.90
2018-09-28T23:38:09.247Z,99.90
2018-09-28T23:40:40.647Z,99.90
2018-09-28T23:43:11.298Z,99.90
2018-09-28T23:45:40.405Z,99.90
2018-09-28T23:48:10.481Z,99.90
2018-09-28T23:50:40.609Z,99.90
2018-09-28T23:53:11.453Z,99.90
2018-09-28T23:55:39.774Z,99.90
2018-09-28T23:58:10.788Z,99.90
